sensor_id;sensor_type;location;lat;lon;timestamp;P1;durP1;ratioP1;P2;durP2;ratioP2
68614;SDS011;55593;51.994;5.882;2022-11-18T00:01:48;12.63;;;3.60;;
68614;SDS011;55593;51.994;5.882;2022-11-18T00:04:19;10.25;;;3.28;;
68614;SDS011;55593;51.994;5.882;2022-11-18T00:06:48;8.27;;;3.40;;
68614;SDS011;55593;51.994;5.882;2022-11-18T00:09:18;8.93;;;3.55;;
68614;SDS011;55593;51.994;5.882;2022-11-18T00:11:47;10.25;;;4.18;;
68614;SDS011;55593;51.994;5.882;2022-11-18T00:14:28;10.30;;;3.55;;
68614;SDS011;55593;51.994;5.882;2022-11-18T00:16:58;16.80;;;3.70;;
68614;SDS011;55593;51.994;5.882;2022-11-18T00:19:31;10.27;;;3.33;;
68614;SDS011;55593;51.994;5.882;2022-11-18T00:22:02;8.63;;;3.30;;
68614;SDS011;55593;51.994;5.882;2022-11-18T00:24:31;6.68;;;3.47;;
68614;SDS011;55593;51.994;5.882;2022-11-18T00:27:01;10.48;;;3.33;;
68614;SDS011;55593;51.994;5.882;2022-11-18T00:29:31;9.18;;;4.03;;
68614;SDS011;55593;51.994;5.882;2022-11-18T00:32:00;14.00;;;4.30;;
68614;SDS011;55593;51.994;5.882;2022-11-18T00:34:32;10.35;;;3.75;;
68614;SDS011;55593;51.994;5.882;2022-11-18T00:37:01;9.73;;;3.40;;
68614;SDS011;55593;51.994;5.882;2022-11-18T00:39:31;10.82;;;4.45;;
68614;SDS011;55593;51.994;5.882;2022-11-18T00:42:00;7.78;;;3.58;;
68614;SDS011;55593;51.994;5.882;2022-11-18T00:44:41;14.50;;;3.88;;
68614;SDS011;55593;51.994;5.882;2022-11-18T00:47:10;13.27;;;3.72;;
68614;SDS011;55593;51.994;5.882;2022-11-18T00:49:42;8.52;;;3.72;;
68614;SDS011;55593;51.994;5.882;2022-11-18T00:52:11;12.65;;;3.85;;
68614;SDS011;55593;51.994;5.882;2022-11-18T00:54:40;10.80;;;4.25;;
68614;SDS011;55593;51.994;5.882;2022-11-18T00:57:10;9.35;;;4.53;;
68614;SDS011;55593;51.994;5.882;2022-11-18T00:59:39;10.90;;;3.75;;
68614;SDS011;55593;51.994;5.882;2022-11-18T01:02:08;8.93;;;3.50;;
68614;SDS011;55593;51.994;5.882;2022-11-18T01:04:37;9.93;;;3.67;;
68614;SDS011;55593;51.994;5.882;2022-11-18T01:07:09;12.32;;;4.25;;
68614;SDS011;55593;51.994;5.882;2022-11-18T01:09:38;7.25;;;3.60;;
68614;SDS011;55593;51.994;5.882;2022-11-18T01:12:08;13.75;;;4.20;;
68614;SDS011;55593;51.994;5.882;2022-11-18T01:14:50;10.85;;;3.88;;
68614;SDS011;55593;51.994;5.882;2022-11-18T01:17:19;9.02;;;3.90;;
68614;SDS011;55593;51.994;5.882;2022-11-18T01:19:48;12.80;;;5.63;;
68614;SDS011;55593;51.994;5.882;2022-11-18T01:22:20;9.82;;;3.53;;
68614;SDS011;55593;51.994;5.882;2022-11-18T01:24:49;10.90;;;3.85;;
68614;SDS011;55593;51.994;5.882;2022-11-18T01:27:18;16.23;;;4.10;;
68614;SDS011;55593;51.994;5.882;2022-11-18T01:29:48;14.30;;;4.35;;
68614;SDS011;55593;51.994;5.882;2022-11-18T01:32:17;7.03;;;3.97;;
68614;SDS011;55593;51.994;5.882;2022-11-18T01:34:46;12.75;;;4.20;;
68614;SDS011;55593;51.994;5.882;2022-11-18T01:37:15;10.30;;;4.10;;
68614;SDS011;55593;51.994;5.882;2022-11-18T01:39:47;12.05;;;4.05;;
68614;SDS011;55593;51.994;5.882;2022-11-18T01:42:16;8.90;;;3.60;;
68614;SDS011;55593;51.994;5.882;2022-11-18T01:47:43;5.97;;;3.22;;
68614;SDS011;55593;51.994;5.882;2022-11-18T01:50:15;11.82;;;3.60;;
68614;SDS011;55593;51.994;5.882;2022-11-18T01:52:46;10.07;;;3.78;;
68614;SDS011;55593;51.994;5.882;2022-11-18T01:55:20;5.78;;;3.22;;
68614;SDS011;55593;51.994;5.882;2022-11-18T01:57:53;8.25;;;3.42;;
68614;SDS011;55593;51.994;5.882;2022-11-18T02:00:24;7.80;;;3.72;;
68614;SDS011;55593;51.994;5.882;2022-11-18T02:02:53;15.13;;;4.03;;
68614;SDS011;55593;51.994;5.882;2022-11-18T02:05:24;11.15;;;4.00;;
68614;SDS011;55593;51.994;5.882;2022-11-18T02:07:54;7.10;;;3.42;;
68614;SDS011;55593;51.994;5.882;2022-11-18T02:10:25;8.10;;;3.60;;
68614;SDS011;55593;51.994;5.882;2022-11-18T02:12:54;8.23;;;4.03;;
68614;SDS011;55593;51.994;5.882;2022-11-18T02:15:28;8.90;;;3.53;;
68614;SDS011;55593;51.994;5.882;2022-11-18T02:18:06;7.32;;;3.50;;
68614;SDS011;55593;51.994;5.882;2022-11-18T02:20:40;8.90;;;3.60;;
68614;SDS011;55593;51.994;5.882;2022-11-18T02:29:21;14.20;;;4.43;;
68614;SDS011;55593;51.994;5.882;2022-11-18T02:31:54;9.30;;;3.75;;
68614;SDS011;55593;51.994;5.882;2022-11-18T02:34:32;9.18;;;3.70;;
68614;SDS011;55593;51.994;5.882;2022-11-18T02:37:06;12.05;;;4.93;;
68614;SDS011;55593;51.994;5.882;2022-11-18T02:39:44;8.77;;;4.03;;
68614;SDS011;55593;51.994;5.882;2022-11-18T02:42:16;11.87;;;3.93;;
68614;SDS011;55593;51.994;5.882;2022-11-18T02:44:49;9.55;;;3.80;;
68614;SDS011;55593;51.994;5.882;2022-11-18T02:47:20;9.98;;;3.78;;
68614;SDS011;55593;51.994;5.882;2022-11-18T02:49:52;12.18;;;4.38;;
68614;SDS011;55593;51.994;5.882;2022-11-18T02:52:23;11.30;;;4.22;;
68614;SDS011;55593;51.994;5.882;2022-11-18T02:54:53;12.23;;;3.85;;
68614;SDS011;55593;51.994;5.882;2022-11-18T02:57:23;9.20;;;4.35;;
68614;SDS011;55593;51.994;5.882;2022-11-18T02:59:56;9.80;;;3.60;;
68614;SDS011;55593;51.994;5.882;2022-11-18T03:02:25;11.60;;;3.92;;
68614;SDS011;55593;51.994;5.882;2022-11-18T03:04:54;9.55;;;4.22;;
68614;SDS011;55593;51.994;5.882;2022-11-18T03:07:24;7.88;;;3.80;;
68614;SDS011;55593;51.994;5.882;2022-11-18T03:09:58;9.75;;;3.53;;
68614;SDS011;55593;51.994;5.882;2022-11-18T03:12:30;8.98;;;3.63;;
68614;SDS011;55593;51.994;5.882;2022-11-18T03:15:05;11.43;;;4.38;;
68614;SDS011;55593;51.994;5.882;2022-11-18T03:17:44;14.15;;;4.20;;
68614;SDS011;55593;51.994;5.882;2022-11-18T03:20:18;7.82;;;3.38;;
68614;SDS011;55593;51.994;5.882;2022-11-18T03:22:51;10.50;;;3.85;;
68614;SDS011;55593;51.994;5.882;2022-11-18T03:25:22;8.43;;;3.63;;
68614;SDS011;55593;51.994;5.882;2022-11-18T03:27:58;7.07;;;3.70;;
68614;SDS011;55593;51.994;5.882;2022-11-18T03:30:33;8.13;;;3.45;;
68614;SDS011;55593;51.994;5.882;2022-11-18T03:33:04;8.27;;;4.22;;
68614;SDS011;55593;51.994;5.882;2022-11-18T03:35:37;10.52;;;3.83;;
68614;SDS011;55593;51.994;5.882;2022-11-18T03:38:10;9.68;;;4.22;;
68614;SDS011;55593;51.994;5.882;2022-11-18T03:40:43;10.68;;;4.00;;
68614;SDS011;55593;51.994;5.882;2022-11-18T03:43:14;9.55;;;3.65;;
68614;SDS011;55593;51.994;5.882;2022-11-18T03:45:49;8.57;;;3.88;;
68614;SDS011;55593;51.994;5.882;2022-11-18T03:48:21;11.10;;;3.85;;
68614;SDS011;55593;51.994;5.882;2022-11-18T03:50:53;10.07;;;3.92;;
68614;SDS011;55593;51.994;5.882;2022-11-18T03:53:25;8.65;;;3.60;;
68614;SDS011;55593;51.994;5.882;2022-11-18T03:55:57;9.95;;;4.50;;
68614;SDS011;55593;51.994;5.882;2022-11-18T03:58:30;8.82;;;3.67;;
68614;SDS011;55593;51.994;5.882;2022-11-18T04:01:07;14.18;;;4.10;;
68614;SDS011;55593;51.994;5.882;2022-11-18T04:03:39;9.02;;;3.75;;
68614;SDS011;55593;51.994;5.882;2022-11-18T04:06:09;10.25;;;3.72;;
68614;SDS011;55593;51.994;5.882;2022-11-18T04:08:43;13.43;;;4.07;;
68614;SDS011;55593;51.994;5.882;2022-11-18T04:11:13;8.82;;;4.25;;
68614;SDS011;55593;51.994;5.882;2022-11-18T04:13:57;11.30;;;4.40;;
68614;SDS011;55593;51.994;5.882;2022-11-18T04:16:29;14.93;;;4.53;;
68614;SDS011;55593;51.994;5.882;2022-11-18T04:18:58;10.38;;;4.05;;
68614;SDS011;55593;51.994;5.882;2022-11-18T04:21:28;8.32;;;4.63;;
68614;SDS011;55593;51.994;5.882;2022-11-18T04:23:57;9.45;;;4.00;;
68614;SDS011;55593;51.994;5.882;2022-11-18T04:26:26;13.32;;;4.70;;
68614;SDS011;55593;51.994;5.882;2022-11-18T04:28:56;7.97;;;4.05;;
68614;SDS011;55593;51.994;5.882;2022-11-18T04:31:25;11.60;;;4.55;;
68614;SDS011;55593;51.994;5.882;2022-11-18T04:33:57;9.32;;;4.75;;
68614;SDS011;55593;51.994;5.882;2022-11-18T04:36:26;13.65;;;5.25;;
68614;SDS011;55593;51.994;5.882;2022-11-18T04:38:55;10.65;;;5.25;;
68614;SDS011;55593;51.994;5.882;2022-11-18T04:41:24;10.10;;;4.57;;
68614;SDS011;55593;51.994;5.882;2022-11-18T04:44:13;14.63;;;4.97;;
68614;SDS011;55593;51.994;5.882;2022-11-18T04:46:43;12.57;;;4.53;;
68614;SDS011;55593;51.994;5.882;2022-11-18T04:49:15;10.00;;;4.47;;
68614;SDS011;55593;51.994;5.882;2022-11-18T04:51:44;10.10;;;4.50;;
68614;SDS011;55593;51.994;5.882;2022-11-18T04:54:14;9.50;;;4.68;;
68614;SDS011;55593;51.994;5.882;2022-11-18T04:56:44;14.18;;;4.82;;
68614;SDS011;55593;51.994;5.882;2022-11-18T04:59:13;10.40;;;4.55;;
68614;SDS011;55593;51.994;5.882;2022-11-18T05:01:43;7.25;;;4.18;;
68614;SDS011;55593;51.994;5.882;2022-11-18T05:04:15;8.55;;;4.18;;
68614;SDS011;55593;51.994;5.882;2022-11-18T05:06:46;10.55;;;3.80;;
68614;SDS011;55593;51.994;5.882;2022-11-18T05:09:15;9.90;;;4.40;;
68614;SDS011;55593;51.994;5.882;2022-11-18T05:11:45;7.80;;;3.95;;
68614;SDS011;55593;51.994;5.882;2022-11-18T05:14:26;10.98;;;4.68;;
68614;SDS011;55593;51.994;5.882;2022-11-18T05:16:58;14.35;;;4.53;;
68614;SDS011;55593;51.994;5.882;2022-11-18T05:19:30;11.23;;;5.28;;
68614;SDS011;55593;51.994;5.882;2022-11-18T05:22:00;9.52;;;4.50;;
68614;SDS011;55593;51.994;5.882;2022-11-18T05:24:29;11.48;;;4.40;;
68614;SDS011;55593;51.994;5.882;2022-11-18T05:26:58;14.95;;;4.75;;
68614;SDS011;55593;51.994;5.882;2022-11-18T05:29:27;10.52;;;4.72;;
68614;SDS011;55593;51.994;5.882;2022-11-18T05:31:56;13.68;;;4.75;;
68614;SDS011;55593;51.994;5.882;2022-11-18T05:34:25;11.38;;;4.68;;
68614;SDS011;55593;51.994;5.882;2022-11-18T05:36:57;10.27;;;4.40;;
68614;SDS011;55593;51.994;5.882;2022-11-18T05:39:27;11.70;;;5.15;;
68614;SDS011;55593;51.994;5.882;2022-11-18T05:41:56;12.00;;;5.47;;
68614;SDS011;55593;51.994;5.882;2022-11-18T05:44:38;9.43;;;5.03;;
68614;SDS011;55593;51.994;5.882;2022-11-18T05:47:07;10.93;;;5.18;;
68614;SDS011;55593;51.994;5.882;2022-11-18T05:49:36;12.57;;;5.82;;
68614;SDS011;55593;51.994;5.882;2022-11-18T05:52:08;13.77;;;5.47;;
68614;SDS011;55593;51.994;5.882;2022-11-18T05:54:37;11.85;;;4.70;;
68614;SDS011;55593;51.994;5.882;2022-11-18T05:57:07;9.60;;;5.47;;
68614;SDS011;55593;51.994;5.882;2022-11-18T05:59:36;9.93;;;4.88;;
68614;SDS011;55593;51.994;5.882;2022-11-18T06:02:05;11.85;;;4.90;;
68614;SDS011;55593;51.994;5.882;2022-11-18T06:04:39;10.13;;;4.93;;
68614;SDS011;55593;51.994;5.882;2022-11-18T06:07:14;9.00;;;4.60;;
68614;SDS011;55593;51.994;5.882;2022-11-18T06:09:45;11.23;;;5.80;;
68614;SDS011;55593;51.994;5.882;2022-11-18T06:12:17;11.07;;;4.28;;
68614;SDS011;55593;51.994;5.882;2022-11-18T06:14:48;10.52;;;4.88;;
68614;SDS011;55593;51.994;5.882;2022-11-18T06:17:20;11.93;;;5.50;;
68614;SDS011;55593;51.994;5.882;2022-11-18T06:19:51;9.63;;;4.70;;
68614;SDS011;55593;51.994;5.882;2022-11-18T06:22:23;10.23;;;5.13;;
68614;SDS011;55593;51.994;5.882;2022-11-18T06:24:52;12.55;;;5.45;;
68614;SDS011;55593;51.994;5.882;2022-11-18T06:27:21;9.40;;;4.63;;
68614;SDS011;55593;51.994;5.882;2022-11-18T06:29:51;13.77;;;5.22;;
68614;SDS011;55593;51.994;5.882;2022-11-18T06:32:20;13.15;;;5.10;;
68614;SDS011;55593;51.994;5.882;2022-11-18T06:34:49;17.38;;;5.85;;
68614;SDS011;55593;51.994;5.882;2022-11-18T06:37:18;12.05;;;6.55;;
68614;SDS011;55593;51.994;5.882;2022-11-18T06:39:50;14.18;;;5.50;;
68614;SDS011;55593;51.994;5.882;2022-11-18T06:42:19;15.05;;;5.63;;
68614;SDS011;55593;51.994;5.882;2022-11-18T06:45:01;15.75;;;5.25;;
68614;SDS011;55593;51.994;5.882;2022-11-18T06:47:30;10.80;;;5.57;;
68614;SDS011;55593;51.994;5.882;2022-11-18T06:49:59;9.75;;;5.00;;
68614;SDS011;55593;51.994;5.882;2022-11-18T06:52:28;10.80;;;5.30;;
68614;SDS011;55593;51.994;5.882;2022-11-18T06:55:00;13.75;;;4.93;;
68614;SDS011;55593;51.994;5.882;2022-11-18T06:57:31;12.10;;;5.57;;
68614;SDS011;55593;51.994;5.882;2022-11-18T07:00:01;9.85;;;5.80;;
68614;SDS011;55593;51.994;5.882;2022-11-18T07:02:31;11.60;;;5.22;;
68614;SDS011;55593;51.994;5.882;2022-11-18T07:05:00;10.38;;;5.03;;
68614;SDS011;55593;51.994;5.882;2022-11-18T07:07:29;10.20;;;5.28;;
68614;SDS011;55593;51.994;5.882;2022-11-18T07:10:01;13.02;;;5.15;;
68614;SDS011;55593;51.994;5.882;2022-11-18T07:12:30;8.32;;;4.95;;
68614;SDS011;55593;51.994;5.882;2022-11-18T07:14:59;16.88;;;5.78;;
68614;SDS011;55593;51.994;5.882;2022-11-18T07:17:28;13.77;;;5.72;;
68614;SDS011;55593;51.994;5.882;2022-11-18T07:19:57;13.20;;;4.75;;
68614;SDS011;55593;51.994;5.882;2022-11-18T07:22:26;13.68;;;5.45;;
68614;SDS011;55593;51.994;5.882;2022-11-18T07:24:56;9.65;;;4.30;;
68614;SDS011;55593;51.994;5.882;2022-11-18T07:27:27;11.52;;;5.22;;
68614;SDS011;55593;51.994;5.882;2022-11-18T07:29:57;9.10;;;5.22;;
68614;SDS011;55593;51.994;5.882;2022-11-18T07:32:26;15.63;;;5.88;;
68614;SDS011;55593;51.994;5.882;2022-11-18T07:34:55;15.57;;;5.97;;
68614;SDS011;55593;51.994;5.882;2022-11-18T07:37:24;13.50;;;5.00;;
68614;SDS011;55593;51.994;5.882;2022-11-18T07:39:53;10.45;;;5.15;;
68614;SDS011;55593;51.994;5.882;2022-11-18T07:42:24;14.00;;;5.55;;
68614;SDS011;55593;51.994;5.882;2022-11-18T07:44:56;8.98;;;5.05;;
68614;SDS011;55593;51.994;5.882;2022-11-18T07:47:25;8.93;;;4.32;;
68614;SDS011;55593;51.994;5.882;2022-11-18T07:49:54;10.10;;;4.78;;
68614;SDS011;55593;51.994;5.882;2022-11-18T07:52:23;13.05;;;5.00;;
68614;SDS011;55593;51.994;5.882;2022-11-18T07:54:52;9.55;;;4.68;;
68614;SDS011;55593;51.994;5.882;2022-11-18T07:57:21;12.68;;;5.18;;
68614;SDS011;55593;51.994;5.882;2022-11-18T07:59:51;12.85;;;4.90;;
68614;SDS011;55593;51.994;5.882;2022-11-18T08:02:22;12.75;;;5.07;;
68614;SDS011;55593;51.994;5.882;2022-11-18T08:04:51;12.63;;;4.65;;
68614;SDS011;55593;51.994;5.882;2022-11-18T08:07:21;11.05;;;4.65;;
68614;SDS011;55593;51.994;5.882;2022-11-18T08:09:50;14.90;;;5.50;;
68614;SDS011;55593;51.994;5.882;2022-11-18T08:12:19;15.25;;;5.28;;
68614;SDS011;55593;51.994;5.882;2022-11-18T08:14:48;17.02;;;5.53;;
68614;SDS011;55593;51.994;5.882;2022-11-18T08:17:17;8.73;;;4.97;;
68614;SDS011;55593;51.994;5.882;2022-11-18T08:19:49;10.30;;;5.85;;
68614;SDS011;55593;51.994;5.882;2022-11-18T08:22:18;10.52;;;6.40;;
68614;SDS011;55593;51.994;5.882;2022-11-18T08:24:47;15.07;;;5.90;;
68614;SDS011;55593;51.994;5.882;2022-11-18T08:27:16;13.27;;;5.50;;
68614;SDS011;55593;51.994;5.882;2022-11-18T08:29:46;13.65;;;5.60;;
68614;SDS011;55593;51.994;5.882;2022-11-18T08:32:15;10.40;;;5.55;;
68614;SDS011;55593;51.994;5.882;2022-11-18T08:34:44;12.82;;;5.57;;
68614;SDS011;55593;51.994;5.882;2022-11-18T08:37:16;12.05;;;5.88;;
68614;SDS011;55593;51.994;5.882;2022-11-18T08:39:48;10.10;;;5.72;;
68614;SDS011;55593;51.994;5.882;2022-11-18T08:42:17;8.82;;;4.60;;
68614;SDS011;55593;51.994;5.882;2022-11-18T08:44:47;15.00;;;5.65;;
68614;SDS011;55593;51.994;5.882;2022-11-18T08:47:16;14.70;;;6.38;;
68614;SDS011;55593;51.994;5.882;2022-11-18T08:49:45;11.60;;;5.88;;
68614;SDS011;55593;51.994;5.882;2022-11-18T08:52:17;13.30;;;5.35;;
68614;SDS011;55593;51.994;5.882;2022-11-18T08:54:46;14.75;;;5.25;;
68614;SDS011;55593;51.994;5.882;2022-11-18T08:57:16;10.65;;;5.55;;
68614;SDS011;55593;51.994;5.882;2022-11-18T08:59:46;10.73;;;6.13;;
68614;SDS011;55593;51.994;5.882;2022-11-18T09:02:16;13.10;;;5.47;;
68614;SDS011;55593;51.994;5.882;2022-11-18T09:04:53;12.82;;;6.15;;
68614;SDS011;55593;51.994;5.882;2022-11-18T09:07:25;9.93;;;5.72;;
68614;SDS011;55593;51.994;5.882;2022-11-18T09:09:55;12.38;;;6.03;;
68614;SDS011;55593;51.994;5.882;2022-11-18T09:12:24;9.10;;;5.60;;
68614;SDS011;55593;51.994;5.882;2022-11-18T09:14:53;12.25;;;6.47;;
68614;SDS011;55593;51.994;5.882;2022-11-18T09:17:22;15.18;;;5.60;;
68614;SDS011;55593;51.994;5.882;2022-11-18T09:19:52;10.25;;;5.60;;
68614;SDS011;55593;51.994;5.882;2022-11-18T09:22:21;14.88;;;5.55;;
68614;SDS011;55593;51.994;5.882;2022-11-18T09:24:52;12.30;;;5.68;;
68614;SDS011;55593;51.994;5.882;2022-11-18T09:27:22;19.48;;;6.72;;
68614;SDS011;55593;51.994;5.882;2022-11-18T09:29:51;7.65;;;5.40;;
68614;SDS011;55593;51.994;5.882;2022-11-18T09:32:20;13.93;;;6.10;;
68614;SDS011;55593;51.994;5.882;2022-11-18T09:34:49;11.20;;;6.03;;
68614;SDS011;55593;51.994;5.882;2022-11-18T09:37:18;8.43;;;5.25;;
68614;SDS011;55593;51.994;5.882;2022-11-18T09:39:47;12.18;;;5.97;;
68614;SDS011;55593;51.994;5.882;2022-11-18T09:42:26;14.63;;;5.97;;
68614;SDS011;55593;51.994;5.882;2022-11-18T09:45:12;13.50;;;6.00;;
68614;SDS011;55593;51.994;5.882;2022-11-18T09:47:47;16.00;;;5.50;;
68614;SDS011;55593;51.994;5.882;2022-11-18T09:50:17;17.42;;;6.40;;
68614;SDS011;55593;51.994;5.882;2022-11-18T09:52:51;17.00;;;4.88;;
68614;SDS011;55593;51.994;5.882;2022-11-18T09:55:28;12.52;;;6.38;;
68614;SDS011;55593;51.994;5.882;2022-11-18T09:58:00;17.95;;;6.57;;
68614;SDS011;55593;51.994;5.882;2022-11-18T10:00:29;12.50;;;5.82;;
68614;SDS011;55593;51.994;5.882;2022-11-18T10:03:00;12.63;;;5.57;;
68614;SDS011;55593;51.994;5.882;2022-11-18T10:05:31;16.83;;;6.05;;
68614;SDS011;55593;51.994;5.882;2022-11-18T10:08:02;14.90;;;5.68;;
68614;SDS011;55593;51.994;5.882;2022-11-18T10:10:38;15.80;;;6.40;;
68614;SDS011;55593;51.994;5.882;2022-11-18T10:13:21;11.50;;;6.20;;
68614;SDS011;55593;51.994;5.882;2022-11-18T10:15:59;16.73;;;6.68;;
68614;SDS011;55593;51.994;5.882;2022-11-18T10:18:34;12.45;;;5.68;;
68614;SDS011;55593;51.994;5.882;2022-11-18T10:21:10;14.05;;;6.22;;
68614;SDS011;55593;51.994;5.882;2022-11-18T10:23:49;16.02;;;5.72;;
68614;SDS011;55593;51.994;5.882;2022-11-18T10:26:33;14.57;;;6.43;;
68614;SDS011;55593;51.994;5.882;2022-11-18T10:29:06;16.88;;;6.60;;
68614;SDS011;55593;51.994;5.882;2022-11-18T10:31:36;15.52;;;6.28;;
68614;SDS011;55593;51.994;5.882;2022-11-18T10:34:08;16.30;;;6.75;;
68614;SDS011;55593;51.994;5.882;2022-11-18T10:36:38;16.88;;;6.47;;
68614;SDS011;55593;51.994;5.882;2022-11-18T10:39:11;19.20;;;7.07;;
68614;SDS011;55593;51.994;5.882;2022-11-18T10:41:43;12.32;;;5.95;;
68614;SDS011;55593;51.994;5.882;2022-11-18T10:44:27;18.83;;;6.32;;
68614;SDS011;55593;51.994;5.882;2022-11-18T10:49:53;16.95;;;7.00;;
68614;SDS011;55593;51.994;5.882;2022-11-18T10:52:24;12.52;;;6.70;;
68614;SDS011;55593;51.994;5.882;2022-11-18T10:55:04;10.35;;;6.45;;
68614;SDS011;55593;51.994;5.882;2022-11-18T10:57:35;16.33;;;7.18;;
68614;SDS011;55593;51.994;5.882;2022-11-18T11:00:30;14.52;;;6.68;;
68614;SDS011;55593;51.994;5.882;2022-11-18T11:03:02;11.98;;;6.97;;
68614;SDS011;55593;51.994;5.882;2022-11-18T11:08:56;15.63;;;6.75;;
68614;SDS011;55593;51.994;5.882;2022-11-18T11:11:28;15.50;;;7.32;;
68614;SDS011;55593;51.994;5.882;2022-11-18T11:16:57;15.35;;;7.00;;
68614;SDS011;55593;51.994;5.882;2022-11-18T11:19:30;15.95;;;6.93;;
68614;SDS011;55593;51.994;5.882;2022-11-18T11:22:07;12.77;;;7.22;;
68614;SDS011;55593;51.994;5.882;2022-11-18T11:24:38;11.80;;;6.60;;
68614;SDS011;55593;51.994;5.882;2022-11-18T11:27:14;14.15;;;7.05;;
68614;SDS011;55593;51.994;5.882;2022-11-18T11:29:59;16.58;;;6.97;;
68614;SDS011;55593;51.994;5.882;2022-11-18T11:33:02;12.30;;;6.40;;
68614;SDS011;55593;51.994;5.882;2022-11-18T11:35:41;17.42;;;7.65;;
68614;SDS011;55593;51.994;5.882;2022-11-18T11:38:16;18.90;;;6.88;;
68614;SDS011;55593;51.994;5.882;2022-11-18T11:40:53;19.05;;;7.97;;
68614;SDS011;55593;51.994;5.882;2022-11-18T11:43:32;16.10;;;8.40;;
68614;SDS011;55593;51.994;5.882;2022-11-18T11:46:06;11.25;;;8.48;;
68614;SDS011;55593;51.994;5.882;2022-11-18T11:48:49;14.77;;;7.82;;
68614;SDS011;55593;51.994;5.882;2022-11-18T11:51:30;16.15;;;7.40;;
68614;SDS011;55593;51.994;5.882;2022-11-18T11:54:03;18.70;;;8.00;;
68614;SDS011;55593;51.994;5.882;2022-11-18T11:56:50;13.85;;;6.78;;
68614;SDS011;55593;51.994;5.882;2022-11-18T11:59:25;17.95;;;7.55;;
68614;SDS011;55593;51.994;5.882;2022-11-18T12:01:57;15.73;;;7.68;;
68614;SDS011;55593;51.994;5.882;2022-11-18T12:04:40;11.50;;;6.95;;
68614;SDS011;55593;51.994;5.882;2022-11-18T12:09:44;16.48;;;7.13;;
68614;SDS011;55593;51.994;5.882;2022-11-18T12:12:21;13.48;;;7.13;;
68614;SDS011;55593;51.994;5.882;2022-11-18T12:15:10;13.02;;;6.65;;
68614;SDS011;55593;51.994;5.882;2022-11-18T12:17:50;13.10;;;6.93;;
68614;SDS011;55593;51.994;5.882;2022-11-18T12:23:16;12.88;;;6.70;;
68614;SDS011;55593;51.994;5.882;2022-11-18T12:25:51;14.15;;;6.68;;
68614;SDS011;55593;51.994;5.882;2022-11-18T12:28:26;13.98;;;7.30;;
68614;SDS011;55593;51.994;5.882;2022-11-18T12:36:27;13.07;;;7.25;;
68614;SDS011;55593;51.994;5.882;2022-11-18T12:38:57;15.75;;;7.45;;
68614;SDS011;55593;51.994;5.882;2022-11-18T12:44:32;11.98;;;7.10;;
68614;SDS011;55593;51.994;5.882;2022-11-18T12:47:02;12.00;;;7.78;;
68614;SDS011;55593;51.994;5.882;2022-11-18T12:52:49;17.27;;;7.13;;
68614;SDS011;55593;51.994;5.882;2022-11-18T12:55:21;15.88;;;7.28;;
68614;SDS011;55593;51.994;5.882;2022-11-18T12:57:53;11.93;;;8.00;;
68614;SDS011;55593;51.994;5.882;2022-11-18T13:00:30;18.60;;;8.73;;
68614;SDS011;55593;51.994;5.882;2022-11-18T13:03:26;14.27;;;7.50;;
68614;SDS011;55593;51.994;5.882;2022-11-18T13:06:00;16.35;;;7.80;;
68614;SDS011;55593;51.994;5.882;2022-11-18T13:08:35;18.05;;;8.48;;
68614;SDS011;55593;51.994;5.882;2022-11-18T13:11:08;17.67;;;7.50;;
68614;SDS011;55593;51.994;5.882;2022-11-18T13:13:51;13.00;;;7.60;;
68614;SDS011;55593;51.994;5.882;2022-11-18T13:16:42;13.80;;;7.70;;
68614;SDS011;55593;51.994;5.882;2022-11-18T13:19:24;15.73;;;7.93;;
68614;SDS011;55593;51.994;5.882;2022-11-18T13:21:53;15.23;;;7.22;;
68614;SDS011;55593;51.994;5.882;2022-11-18T13:24:42;22.10;;;10.45;;
68614;SDS011;55593;51.994;5.882;2022-11-18T13:29:55;12.63;;;7.25;;
68614;SDS011;55593;51.994;5.882;2022-11-18T13:35:03;11.95;;;6.28;;
68614;SDS011;55593;51.994;5.882;2022-11-18T13:37:46;11.52;;;7.05;;
68614;SDS011;55593;51.994;5.882;2022-11-18T13:40:20;9.38;;;5.90;;
68614;SDS011;55593;51.994;5.882;2022-11-18T13:42:52;11.93;;;6.05;;
68614;SDS011;55593;51.994;5.882;2022-11-18T13:45:22;14.40;;;5.55;;
68614;SDS011;55593;51.994;5.882;2022-11-18T13:47:54;16.75;;;5.03;;
68614;SDS011;55593;51.994;5.882;2022-11-18T13:50:29;10.25;;;4.90;;
68614;SDS011;55593;51.994;5.882;2022-11-18T13:53:03;13.10;;;5.00;;
68614;SDS011;55593;51.994;5.882;2022-11-18T13:55:42;11.63;;;5.07;;
68614;SDS011;55593;51.994;5.882;2022-11-18T13:58:24;15.00;;;5.35;;
68614;SDS011;55593;51.994;5.882;2022-11-18T14:00:59;13.07;;;5.10;;
68614;SDS011;55593;51.994;5.882;2022-11-18T14:03:31;14.40;;;5.00;;
68614;SDS011;55593;51.994;5.882;2022-11-18T14:06:02;12.55;;;4.82;;
68614;SDS011;55593;51.994;5.882;2022-11-18T14:08:31;16.00;;;4.93;;
68614;SDS011;55593;51.994;5.882;2022-11-18T14:11:04;9.32;;;4.88;;
68614;SDS011;55593;51.994;5.882;2022-11-18T14:13:34;16.00;;;4.78;;
68614;SDS011;55593;51.994;5.882;2022-11-18T14:16:29;10.93;;;4.75;;
68614;SDS011;55593;51.994;5.882;2022-11-18T14:18:59;16.38;;;5.35;;
68614;SDS011;55593;51.994;5.882;2022-11-18T14:21:29;12.27;;;5.32;;
68614;SDS011;55593;51.994;5.882;2022-11-18T14:23:59;11.65;;;5.35;;
68614;SDS011;55593;51.994;5.882;2022-11-18T14:26:33;12.00;;;5.30;;
68614;SDS011;55593;51.994;5.882;2022-11-18T14:29:13;10.77;;;4.82;;
68614;SDS011;55593;51.994;5.882;2022-11-18T14:32:01;14.73;;;5.07;;
68614;SDS011;55593;51.994;5.882;2022-11-18T14:34:43;19.63;;;5.55;;
68614;SDS011;55593;51.994;5.882;2022-11-18T14:37:13;13.73;;;5.63;;
68614;SDS011;55593;51.994;5.882;2022-11-18T14:39:52;11.68;;;4.80;;
68614;SDS011;55593;51.994;5.882;2022-11-18T14:42:25;14.77;;;5.50;;
68614;SDS011;55593;51.994;5.882;2022-11-18T14:44:54;16.17;;;5.70;;
68614;SDS011;55593;51.994;5.882;2022-11-18T14:47:24;10.20;;;5.38;;
68614;SDS011;55593;51.994;5.882;2022-11-18T14:49:55;12.20;;;4.97;;
68614;SDS011;55593;51.994;5.882;2022-11-18T14:52:24;11.65;;;5.20;;
68614;SDS011;55593;51.994;5.882;2022-11-18T14:54:53;10.48;;;4.72;;
68614;SDS011;55593;51.994;5.882;2022-11-18T14:57:25;14.48;;;5.47;;
68614;SDS011;55593;51.994;5.882;2022-11-18T14:59:54;11.73;;;5.45;;
68614;SDS011;55593;51.994;5.882;2022-11-18T15:02:23;14.10;;;6.70;;
68614;SDS011;55593;51.994;5.882;2022-11-18T15:04:52;11.02;;;5.47;;
68614;SDS011;55593;51.994;5.882;2022-11-18T15:07:22;15.05;;;7.10;;
68614;SDS011;55593;51.994;5.882;2022-11-18T15:09:51;13.82;;;5.68;;
68614;SDS011;55593;51.994;5.882;2022-11-18T15:12:20;16.52;;;5.85;;
68614;SDS011;55593;51.994;5.882;2022-11-18T15:14:52;15.02;;;5.80;;
68614;SDS011;55593;51.994;5.882;2022-11-18T15:17:21;13.13;;;5.60;;
68614;SDS011;55593;51.994;5.882;2022-11-18T15:19:50;15.02;;;6.07;;
68614;SDS011;55593;51.994;5.882;2022-11-18T15:22:19;9.80;;;5.50;;
68614;SDS011;55593;51.994;5.882;2022-11-18T15:24:48;12.70;;;5.53;;
68614;SDS011;55593;51.994;5.882;2022-11-18T15:27:17;12.65;;;6.20;;
68614;SDS011;55593;51.994;5.882;2022-11-18T15:29:46;19.08;;;7.03;;
68614;SDS011;55593;51.994;5.882;2022-11-18T15:32:18;13.32;;;6.43;;
68614;SDS011;55593;51.994;5.882;2022-11-18T15:34:47;14.43;;;6.03;;
68614;SDS011;55593;51.994;5.882;2022-11-18T15:37:16;11.77;;;6.10;;
68614;SDS011;55593;51.994;5.882;2022-11-18T15:39:45;13.23;;;6.43;;
68614;SDS011;55593;51.994;5.882;2022-11-18T15:42:15;14.15;;;8.45;;
68614;SDS011;55593;51.994;5.882;2022-11-18T15:44:45;18.55;;;8.40;;
68614;SDS011;55593;51.994;5.882;2022-11-18T15:47:14;17.42;;;8.95;;
68614;SDS011;55593;51.994;5.882;2022-11-18T15:49:46;12.60;;;8.13;;